sensor_id;sensor_type;location;lat;lon;timestamp;temperature;humidity
13115;DHT22;6623;52.120;8.660;2023-11-21T00:01:52;19.90;50.80
13115;DHT22;6623;52.120;8.660;2023-11-21T00:04:17;19.90;51.30
13115;DHT22;6623;52.120;8.660;2023-11-21T00:06:43;19.90;50.70
13115;DHT22;6623;52.120;8.660;2023-11-21T00:09:13;19.90;50.70
13115;DHT22;6623;52.120;8.660;2023-11-21T00:11:41;19.90;50.60
13115;DHT22;6623;52.120;8.660;2023-11-21T00:14:06;19.90;50.70
13115;DHT22;6623;52.120;8.660;2023-11-21T00:16:33;19.80;50.60
13115;DHT22;6623;52.120;8.660;2023-11-21T00:18:59;19.90;50.70
13115;DHT22;6623;52.120;8.660;2023-11-21T00:21:25;19.90;50.70
13115;DHT22;6623;52.120;8.660;2023-11-21T00:23:50;19.90;50.60
13115;DHT22;6623;52.120;8.660;2023-11-21T00:26:16;19.80;50.60
13115;DHT22;6623;52.120;8.660;2023-11-21T00:28:42;19.80;50.60
13115;DHT22;6623;52.120;8.660;2023-11-21T00:31:07;19.90;50.60
13115;DHT22;6623;52.120;8.660;2023-11-21T00:33:33;19.80;50.50
13115;DHT22;6623;52.120;8.660;2023-11-21T00:35:59;19.90;50.60
13115;DHT22;6623;52.120;8.660;2023-11-21T00:38:24;19.80;50.50
13115;DHT22;6623;52.120;8.660;2023-11-21T00:40:50;19.80;50.50
13115;DHT22;6623;52.120;8.660;2023-11-21T00:43:15;19.90;51.20
13115;DHT22;6623;52.120;8.660;2023-11-21T00:45:41;19.80;50.50
13115;DHT22;6623;52.120;8.660;2023-11-21T00:48:06;19.90;50.50
13115;DHT22;6623;52.120;8.660;2023-11-21T00:50:33;19.80;50.40
13115;DHT22;6623;52.120;8.660;2023-11-21T00:52:59;19.80;50.50
13115;DHT22;6623;52.120;8.660;2023-11-21T00:55:24;19.80;50.50
13115;DHT22;6623;52.120;8.660;2023-11-21T00:57:50;19.80;50.40
13115;DHT22;6623;52.120;8.660;2023-11-21T01:00:16;19.80;50.50
13115;DHT22;6623;52.120;8.660;2023-11-21T01:02:45;19.80;50.40
13115;DHT22;6623;52.120;8.660;2023-11-21T01:05:10;19.80;50.40
13115;DHT22;6623;52.120;8.660;2023-11-21T01:07:36;19.80;50.40
13115;DHT22;6623;52.120;8.660;2023-11-21T01:10:03;19.80;50.40
13115;DHT22;6623;52.120;8.660;2023-11-21T01:12:34;19.80;50.40
13115;DHT22;6623;52.120;8.660;2023-11-21T01:14:59;19.80;50.40
13115;DHT22;6623;52.120;8.660;2023-11-21T01:17:26;19.80;50.40
13115;DHT22;6623;52.120;8.660;2023-11-21T01:19:52;19.80;50.30
13115;DHT22;6623;52.120;8.660;2023-11-21T01:22:18;19.90;50.40
13115;DHT22;6623;52.120;8.660;2023-11-21T01:24:47;19.80;50.30
13115;DHT22;6623;52.120;8.660;2023-11-21T01:27:13;19.80;50.30
13115;DHT22;6623;52.120;8.660;2023-11-21T01:29:38;19.80;50.30
13115;DHT22;6623;52.120;8.660;2023-11-21T01:32:04;19.80;50.30
13115;DHT22;6623;52.120;8.660;2023-11-21T01:34:33;19.80;50.30
13115;DHT22;6623;52.120;8.660;2023-11-21T01:36:59;19.80;50.30
13115;DHT22;6623;52.120;8.660;2023-11-21T01:39:25;19.80;50.30
13115;DHT22;6623;52.120;8.660;2023-11-21T01:41:51;19.80;50.30
13115;DHT22;6623;52.120;8.660;2023-11-21T01:44:17;19.80;50.30
13115;DHT22;6623;52.120;8.660;2023-11-21T01:46:45;19.80;50.30
13115;DHT22;6623;52.120;8.660;2023-11-21T01:49:10;19.80;50.30
13115;DHT22;6623;52.120;8.660;2023-11-21T01:51:39;19.80;50.30
13115;DHT22;6623;52.120;8.660;2023-11-21T01:54:06;19.80;50.30
13115;DHT22;6623;52.120;8.660;2023-11-21T01:56:32;19.80;50.30
13115;DHT22;6623;52.120;8.660;2023-11-21T01:58:58;19.80;50.30
13115;DHT22;6623;52.120;8.660;2023-11-21T02:01:23;19.80;50.30
13115;DHT22;6623;52.120;8.660;2023-11-21T02:03:49;19.80;50.30
13115;DHT22;6623;52.120;8.660;2023-11-21T02:06:14;19.80;50.30
13115;DHT22;6623;52.120;8.660;2023-11-21T02:08:40;19.80;50.30
13115;DHT22;6623;52.120;8.660;2023-11-21T02:11:07;19.80;50.30
13115;DHT22;6623;52.120;8.660;2023-11-21T02:13:34;19.80;50.20
13115;DHT22;6623;52.120;8.660;2023-11-21T02:16:01;19.80;50.20
13115;DHT22;6623;52.120;8.660;2023-11-21T02:18:26;19.80;50.30
13115;DHT22;6623;52.120;8.660;2023-11-21T02:20:55;19.80;50.30
13115;DHT22;6623;52.120;8.660;2023-11-21T02:23:21;19.80;50.30
13115;DHT22;6623;52.120;8.660;2023-11-21T02:25:48;19.80;50.20
13115;DHT22;6623;52.120;8.660;2023-11-21T02:28:14;19.80;50.20
13115;DHT22;6623;52.120;8.660;2023-11-21T02:30:41;19.80;50.20
13115;DHT22;6623;52.120;8.660;2023-11-21T02:33:08;19.80;50.20
13115;DHT22;6623;52.120;8.660;2023-11-21T02:35:33;19.80;50.20
13115;DHT22;6623;52.120;8.660;2023-11-21T02:38:00;19.80;50.20
13115;DHT22;6623;52.120;8.660;2023-11-21T02:40:25;19.80;50.20
13115;DHT22;6623;52.120;8.660;2023-11-21T02:42:52;19.80;50.20
13115;DHT22;6623;52.120;8.660;2023-11-21T02:45:18;19.80;50.20
13115;DHT22;6623;52.120;8.660;2023-11-21T02:47:46;19.80;50.20
13115;DHT22;6623;52.120;8.660;2023-11-21T02:50:12;19.80;50.20
13115;DHT22;6623;52.120;8.660;2023-11-21T02:52:38;19.80;50.10
13115;DHT22;6623;52.120;8.660;2023-11-21T02:55:06;19.90;50.20
13115;DHT22;6623;52.120;8.660;2023-11-21T02:57:32;19.90;50.30
13115;DHT22;6623;52.120;8.660;2023-11-21T02:59:59;19.80;50.20
13115;DHT22;6623;52.120;8.660;2023-11-21T03:02:25;19.80;50.20
13115;DHT22;6623;52.120;8.660;2023-11-21T03:04:51;19.80;50.10
13115;DHT22;6623;52.120;8.660;2023-11-21T03:07:17;19.80;50.20
13115;DHT22;6623;52.120;8.660;2023-11-21T03:09:45;19.90;50.20
13115;DHT22;6623;52.120;8.660;2023-11-21T03:12:10;19.90;50.20
13115;DHT22;6623;52.120;8.660;2023-11-21T03:14:37;19.80;50.10
13115;DHT22;6623;52.120;8.660;2023-11-21T03:17:03;19.80;50.10
13115;DHT22;6623;52.120;8.660;2023-11-21T03:19:30;19.80;50.10
13115;DHT22;6623;52.120;8.660;2023-11-21T03:21:55;19.80;50.10
13115;DHT22;6623;52.120;8.660;2023-11-21T03:24:21;19.80;50.10
13115;DHT22;6623;52.120;8.660;2023-11-21T03:26:48;19.80;50.10
13115;DHT22;6623;52.120;8.660;2023-11-21T03:29:13;19.80;50.10
13115;DHT22;6623;52.120;8.660;2023-11-21T03:31:40;19.80;50.10
13115;DHT22;6623;52.120;8.660;2023-11-21T03:34:05;19.80;50.10
13115;DHT22;6623;52.120;8.660;2023-11-21T03:36:31;19.90;50.10
13115;DHT22;6623;52.120;8.660;2023-11-21T03:38:57;19.80;50.10
13115;DHT22;6623;52.120;8.660;2023-11-21T03:41:22;19.80;50.10
13115;DHT22;6623;52.120;8.660;2023-11-21T03:43:48;19.80;50.10
13115;DHT22;6623;52.120;8.660;2023-11-21T03:46:13;19.80;50.10
13115;DHT22;6623;52.120;8.660;2023-11-21T03:48:39;19.80;50.10
13115;DHT22;6623;52.120;8.660;2023-11-21T03:51:05;19.80;50.10
13115;DHT22;6623;52.120;8.660;2023-11-21T03:53:31;19.80;50.10
13115;DHT22;6623;52.120;8.660;2023-11-21T03:55:57;19.80;50.10
13115;DHT22;6623;52.120;8.660;2023-11-21T03:58:22;19.80;50.10
13115;DHT22;6623;52.120;8.660;2023-11-21T04:00:48;19.80;50.10
13115;DHT22;6623;52.120;8.660;2023-11-21T04:03:14;19.80;50.10
13115;DHT22;6623;52.120;8.660;2023-11-21T04:05:40;19.80;50.10
13115;DHT22;6623;52.120;8.660;2023-11-21T04:08:06;19.80;50.10
13115;DHT22;6623;52.120;8.660;2023-11-21T04:10:32;19.80;50.10
13115;DHT22;6623;52.120;8.660;2023-11-21T04:12:58;19.80;50.10
13115;DHT22;6623;52.120;8.660;2023-11-21T04:15:23;19.80;50.10
13115;DHT22;6623;52.120;8.660;2023-11-21T04:17:49;19.80;50.10
13115;DHT22;6623;52.120;8.660;2023-11-21T04:20:14;19.80;50.10
13115;DHT22;6623;52.120;8.660;2023-11-21T04:22:41;19.80;50.10
13115;DHT22;6623;52.120;8.660;2023-11-21T04:25:11;19.80;50.10
13115;DHT22;6623;52.120;8.660;2023-11-21T04:27:38;19.80;50.10
13115;DHT22;6623;52.120;8.660;2023-11-21T04:30:04;19.80;50.10
13115;DHT22;6623;52.120;8.660;2023-11-21T04:32:30;19.80;50.10
13115;DHT22;6623;52.120;8.660;2023-11-21T04:34:56;19.80;50.10
13115;DHT22;6623;52.120;8.660;2023-11-21T04:37:21;19.80;50.10
13115;DHT22;6623;52.120;8.660;2023-11-21T04:39:48;19.80;50.10
13115;DHT22;6623;52.120;8.660;2023-11-21T04:42:13;19.80;50.10
13115;DHT22;6623;52.120;8.660;2023-11-21T04:44:39;19.80;50.10
13115;DHT22;6623;52.120;8.660;2023-11-21T04:47:06;19.80;50.10
13115;DHT22;6623;52.120;8.660;2023-11-21T04:49:33;19.80;50.10
13115;DHT22;6623;52.120;8.660;2023-11-21T04:51:58;19.90;50.20
13115;DHT22;6623;52.120;8.660;2023-11-21T04:54:24;19.80;50.10
13115;DHT22;6623;52.120;8.660;2023-11-21T04:56:49;19.80;50.10
13115;DHT22;6623;52.120;8.660;2023-11-21T04:59:15;19.80;50.10
13115;DHT22;6623;52.120;8.660;2023-11-21T05:01:41;19.80;50.10
13115;DHT22;6623;52.120;8.660;2023-11-21T05:04:06;19.80;50.10
13115;DHT22;6623;52.120;8.660;2023-11-21T05:06:34;19.80;50.10
13115;DHT22;6623;52.120;8.660;2023-11-21T05:08:59;19.80;50.10
13115;DHT22;6623;52.120;8.660;2023-11-21T05:11:28;19.80;50.10
13115;DHT22;6623;52.120;8.660;2023-11-21T05:13:57;19.80;50.10
13115;DHT22;6623;52.120;8.660;2023-11-21T05:16:26;19.80;50.10
13115;DHT22;6623;52.120;8.660;2023-11-21T05:18:53;19.80;50.10
13115;DHT22;6623;52.120;8.660;2023-11-21T05:21:18;19.80;50.10
13115;DHT22;6623;52.120;8.660;2023-11-21T05:23:46;19.80;50.10
13115;DHT22;6623;52.120;8.660;2023-11-21T05:26:11;19.80;50.10
13115;DHT22;6623;52.120;8.660;2023-11-21T05:28:37;19.80;50.10
13115;DHT22;6623;52.120;8.660;2023-11-21T05:31:02;19.80;50.10
13115;DHT22;6623;52.120;8.660;2023-11-21T05:33:28;19.80;50.10
13115;DHT22;6623;52.120;8.660;2023-11-21T05:35:53;19.80;50.10
13115;DHT22;6623;52.120;8.660;2023-11-21T05:38:19;19.80;50.10
13115;DHT22;6623;52.120;8.660;2023-11-21T05:40:47;19.80;50.10
13115;DHT22;6623;52.120;8.660;2023-11-21T05:43:13;19.80;50.10
13115;DHT22;6623;52.120;8.660;2023-11-21T05:45:38;19.80;50.10
13115;DHT22;6623;52.120;8.660;2023-11-21T05:48:04;19.80;50.10
13115;DHT22;6623;52.120;8.660;2023-11-21T05:50:30;19.80;50.10
13115;DHT22;6623;52.120;8.660;2023-11-21T05:52:56;19.80;50.10
13115;DHT22;6623;52.120;8.660;2023-11-21T05:55:23;19.80;50.10
13115;DHT22;6623;52.120;8.660;2023-11-21T05:57:51;19.80;50.10
13115;DHT22;6623;52.120;8.660;2023-11-21T06:00:17;19.80;50.10
13115;DHT22;6623;52.120;8.660;2023-11-21T06:02:49;19.80;50.10
13115;DHT22;6623;52.120;8.660;2023-11-21T06:05:18;19.80;50.10
13115;DHT22;6623;52.120;8.660;2023-11-21T06:07:44;19.80;50.10
13115;DHT22;6623;52.120;8.660;2023-11-21T06:10:11;19.80;50.10
13115;DHT22;6623;52.120;8.660;2023-11-21T06:12:38;19.80;50.10
13115;DHT22;6623;52.120;8.660;2023-11-21T06:15:06;19.80;50.10
13115;DHT22;6623;52.120;8.660;2023-11-21T06:17:34;19.80;50.10
13115;DHT22;6623;52.120;8.660;2023-11-21T06:20:03;19.80;50.20
13115;DHT22;6623;52.120;8.660;2023-11-21T06:22:35;19.80;50.10
13115;DHT22;6623;52.120;8.660;2023-11-21T06:25:01;19.80;50.10
13115;DHT22;6623;52.120;8.660;2023-11-21T06:27:27;19.80;50.10
13115;DHT22;6623;52.120;8.660;2023-11-21T06:29:53;19.80;50.10
13115;DHT22;6623;52.120;8.660;2023-11-21T06:32:18;19.80;50.10
13115;DHT22;6623;52.120;8.660;2023-11-21T06:34:45;19.80;50.10
13115;DHT22;6623;52.120;8.660;2023-11-21T06:37:11;19.80;50.10
13115;DHT22;6623;52.120;8.660;2023-11-21T06:39:37;19.80;50.10
13115;DHT22;6623;52.120;8.660;2023-11-21T06:42:03;19.80;50.10
13115;DHT22;6623;52.120;8.660;2023-11-21T06:44:29;19.80;50.10
13115;DHT22;6623;52.120;8.660;2023-11-21T06:46:55;19.80;50.10
13115;DHT22;6623;52.120;8.660;2023-11-21T06:49:21;19.80;50.10
13115;DHT22;6623;52.120;8.660;2023-11-21T06:51:48;19.80;50.10
13115;DHT22;6623;52.120;8.660;2023-11-21T06:54:13;19.80;50.10
13115;DHT22;6623;52.120;8.660;2023-11-21T06:56:39;19.80;50.10
13115;DHT22;6623;52.120;8.660;2023-11-21T06:59:06;19.80;50.10
13115;DHT22;6623;52.120;8.660;2023-11-21T07:01:31;19.80;50.10
13115;DHT22;6623;52.120;8.660;2023-11-21T07:04:04;19.80;50.10
13115;DHT22;6623;52.120;8.660;2023-11-21T07:06:30;19.80;50.10
13115;DHT22;6623;52.120;8.660;2023-11-21T07:08:56;19.80;50.10
13115;DHT22;6623;52.120;8.660;2023-11-21T07:11:21;19.80;50.10
13115;DHT22;6623;52.120;8.660;2023-11-21T07:13:48;19.80;50.10
13115;DHT22;6623;52.120;8.660;2023-11-21T07:16:13;19.80;50.10
13115;DHT22;6623;52.120;8.660;2023-11-21T07:18:40;19.80;50.10
13115;DHT22;6623;52.120;8.660;2023-11-21T07:21:06;19.80;50.10
13115;DHT22;6623;52.120;8.660;2023-11-21T07:23:31;19.80;50.10
13115;DHT22;6623;52.120;8.660;2023-11-21T07:25:57;19.80;50.10
13115;DHT22;6623;52.120;8.660;2023-11-21T07:28:24;19.80;50.10
13115;DHT22;6623;52.120;8.660;2023-11-21T07:30:51;19.80;50.10
13115;DHT22;6623;52.120;8.660;2023-11-21T07:33:16;19.80;50.10
13115;DHT22;6623;52.120;8.660;2023-11-21T07:35:43;19.80;50.10
13115;DHT22;6623;52.120;8.660;2023-11-21T07:38:08;19.80;50.10
13115;DHT22;6623;52.120;8.660;2023-11-21T07:40:34;19.80;50.10
13115;DHT22;6623;52.120;8.660;2023-11-21T07:42:59;19.80;50.10
13115;DHT22;6623;52.120;8.660;2023-11-21T07:45:25;19.80;50.10
13115;DHT22;6623;52.120;8.660;2023-11-21T07:47:53;19.80;50.10
13115;DHT22;6623;52.120;8.660;2023-11-21T07:50:19;19.80;50.10
13115;DHT22;6623;52.120;8.660;2023-11-21T07:52:45;19.80;50.10
13115;DHT22;6623;52.120;8.660;2023-11-21T07:55:11;19.80;50.10
13115;DHT22;6623;52.120;8.660;2023-11-21T07:57:37;19.80;50.10
13115;DHT22;6623;52.120;8.660;2023-11-21T08:00:04;19.80;50.20
13115;DHT22;6623;52.120;8.660;2023-11-21T08:02:32;19.80;50.20
13115;DHT22;6623;52.120;8.660;2023-11-21T08:04:57;19.80;50.20
13115;DHT22;6623;52.120;8.660;2023-11-21T08:07:23;19.80;50.20
13115;DHT22;6623;52.120;8.660;2023-11-21T08:09:48;19.80;50.20
13115;DHT22;6623;52.120;8.660;2023-11-21T08:12:15;19.80;50.20
13115;DHT22;6623;52.120;8.660;2023-11-21T08:14:41;19.80;50.20
13115;DHT22;6623;52.120;8.660;2023-11-21T08:17:06;19.80;50.20
13115;DHT22;6623;52.120;8.660;2023-11-21T08:19:32;19.80;50.20
13115;DHT22;6623;52.120;8.660;2023-11-21T08:21:58;19.80;50.20
13115;DHT22;6623;52.120;8.660;2023-11-21T08:24:24;19.80;50.20
13115;DHT22;6623;52.120;8.660;2023-11-21T08:26:50;19.80;50.20
13115;DHT22;6623;52.120;8.660;2023-11-21T08:29:17;19.80;50.20
13115;DHT22;6623;52.120;8.660;2023-11-21T08:31:43;19.80;50.20
13115;DHT22;6623;52.120;8.660;2023-11-21T08:34:12;19.80;50.20
13115;DHT22;6623;52.120;8.660;2023-11-21T08:36:42;19.80;50.30
13115;DHT22;6623;52.120;8.660;2023-11-21T08:39:08;19.80;50.30
13115;DHT22;6623;52.120;8.660;2023-11-21T08:41:34;19.80;50.30
13115;DHT22;6623;52.120;8.660;2023-11-21T08:44:00;19.80;50.30
13115;DHT22;6623;52.120;8.660;2023-11-21T08:46:25;19.80;50.30
13115;DHT22;6623;52.120;8.660;2023-11-21T08:48:51;19.80;50.30
13115;DHT22;6623;52.120;8.660;2023-11-21T08:51:18;19.80;50.60
13115;DHT22;6623;52.120;8.660;2023-11-21T08:53:43;19.80;50.30
13115;DHT22;6623;52.120;8.660;2023-11-21T08:56:14;19.80;50.30
13115;DHT22;6623;52.120;8.660;2023-11-21T08:58:40;19.80;50.30
13115;DHT22;6623;52.120;8.660;2023-11-21T09:01:07;19.80;50.30
13115;DHT22;6623;52.120;8.660;2023-11-21T09:03:32;19.80;50.30
13115;DHT22;6623;52.120;8.660;2023-11-21T09:06:00;19.80;50.30
13115;DHT22;6623;52.120;8.660;2023-11-21T09:08:26;19.80;50.30
13115;DHT22;6623;52.120;8.660;2023-11-21T09:10:53;19.80;50.30
13115;DHT22;6623;52.120;8.660;2023-11-21T09:13:19;19.80;50.30
13115;DHT22;6623;52.120;8.660;2023-11-21T09:15:44;19.80;50.30
13115;DHT22;6623;52.120;8.660;2023-11-21T09:18:15;19.80;50.30
13115;DHT22;6623;52.120;8.660;2023-11-21T09:20:42;19.80;50.30
13115;DHT22;6623;52.120;8.660;2023-11-21T09:23:09;19.80;50.30
13115;DHT22;6623;52.120;8.660;2023-11-21T09:25:35;19.80;50.30
13115;DHT22;6623;52.120;8.660;2023-11-21T09:28:03;19.80;50.30
13115;DHT22;6623;52.120;8.660;2023-11-21T09:30:33;19.80;50.30
13115;DHT22;6623;52.120;8.660;2023-11-21T09:32:59;19.80;50.30
13115;DHT22;6623;52.120;8.660;2023-11-21T09:35:24;19.80;50.30
13115;DHT22;6623;52.120;8.660;2023-11-21T09:37:50;19.80;50.40
13115;DHT22;6623;52.120;8.660;2023-11-21T09:40:21;19.80;50.40
13115;DHT22;6623;52.120;8.660;2023-11-21T09:42:57;19.80;50.40
13115;DHT22;6623;52.120;8.660;2023-11-21T09:45:28;19.80;50.40
13115;DHT22;6623;52.120;8.660;2023-11-21T09:47:55;19.80;50.40
13115;DHT22;6623;52.120;8.660;2023-11-21T09:50:22;19.80;50.40
13115;DHT22;6623;52.120;8.660;2023-11-21T09:55:37;19.80;50.40
13115;DHT22;6623;52.120;8.660;2023-11-21T09:58:04;19.80;50.40
13115;DHT22;6623;52.120;8.660;2023-11-21T10:00:33;19.80;50.40
13115;DHT22;6623;52.120;8.660;2023-11-21T10:02:59;19.80;50.40
13115;DHT22;6623;52.120;8.660;2023-11-21T10:05:25;19.80;50.40
13115;DHT22;6623;52.120;8.660;2023-11-21T10:07:51;19.80;50.40
13115;DHT22;6623;52.120;8.660;2023-11-21T10:10:22;19.80;50.40
13115;DHT22;6623;52.120;8.660;2023-11-21T10:12:50;19.80;50.40
13115;DHT22;6623;52.120;8.660;2023-11-21T10:15:21;19.80;50.40
13115;DHT22;6623;52.120;8.660;2023-11-21T10:17:49;19.80;50.40
13115;DHT22;6623;52.120;8.660;2023-11-21T10:20:16;19.80;50.40
13115;DHT22;6623;52.120;8.660;2023-11-21T10:22:43;19.80;50.40
13115;DHT22;6623;52.120;8.660;2023-11-21T10:25:12;19.80;50.40
13115;DHT22;6623;52.120;8.660;2023-11-21T10:27:40;19.80;50.40
13115;DHT22;6623;52.120;8.660;2023-11-21T10:30:09;19.80;50.40
13115;DHT22;6623;52.120;8.660;2023-11-21T10:32:39;19.80;50.40
13115;DHT22;6623;52.120;8.660;2023-11-21T10:35:06;19.80;50.40
13115;DHT22;6623;52.120;8.660;2023-11-21T10:37:39;19.80;50.40
13115;DHT22;6623;52.120;8.660;2023-11-21T10:40:11;19.80;50.40
13115;DHT22;6623;52.120;8.660;2023-11-21T10:42:40;19.80;50.40
13115;DHT22;6623;52.120;8.660;2023-11-21T10:45:07;19.80;50.40
13115;DHT22;6623;52.120;8.660;2023-11-21T10:47:40;19.80;50.40
13115;DHT22;6623;52.120;8.660;2023-11-21T10:50:07;19.80;50.40
13115;DHT22;6623;52.120;8.660;2023-11-21T10:52:39;19.80;50.40
13115;DHT22;6623;52.120;8.660;2023-11-21T10:55:18;19.80;50.40
13115;DHT22;6623;52.120;8.660;2023-11-21T10:57:48;19.80;50.40
13115;DHT22;6623;52.120;8.660;2023-11-21T11:00:16;19.80;50.40
13115;DHT22;6623;52.120;8.660;2023-11-21T11:02:42;19.80;50.40
13115;DHT22;6623;52.120;8.660;2023-11-21T11:05:08;19.70;50.30
13115;DHT22;6623;52.120;8.660;2023-11-21T11:07:38;19.70;50.30
13115;DHT22;6623;52.120;8.660;2023-11-21T11:10:08;19.70;50.30
13115;DHT22;6623;52.120;8.660;2023-11-21T11:12:40;19.70;50.30
13115;DHT22;6623;52.120;8.660;2023-11-21T11:15:07;19.70;50.30
13115;DHT22;6623;52.120;8.660;2023-11-21T11:17:36;19.80;50.40
13115;DHT22;6623;52.120;8.660;2023-11-21T11:20:04;19.70;50.30
13115;DHT22;6623;52.120;8.660;2023-11-21T11:27:54;19.80;50.40
13115;DHT22;6623;52.120;8.660;2023-11-21T11:33:28;19.70;50.40
13115;DHT22;6623;52.120;8.660;2023-11-21T11:36:29;19.70;50.40
13115;DHT22;6623;52.120;8.660;2023-11-21T11:38:52;19.70;50.30
13115;DHT22;6623;52.120;8.660;2023-11-21T11:41:26;19.70;50.40
13115;DHT22;6623;52.120;8.660;2023-11-21T11:43:57;19.70;50.30
13115;DHT22;6623;52.120;8.660;2023-11-21T11:46:42;19.70;50.30
13115;DHT22;6623;52.120;8.660;2023-11-21T11:49:07;19.70;50.30
13115;DHT22;6623;52.120;8.660;2023-11-21T11:51:33;19.70;50.30
13115;DHT22;6623;52.120;8.660;2023-11-21T11:54:01;19.70;50.30
13115;DHT22;6623;52.120;8.660;2023-11-21T11:56:34;19.70;50.30
13115;DHT22;6623;52.120;8.660;2023-11-21T11:59:04;19.70;50.30
13115;DHT22;6623;52.120;8.660;2023-11-21T12:01:32;19.70;50.40
13115;DHT22;6623;52.120;8.660;2023-11-21T12:06:36;19.70;50.30
13115;DHT22;6623;52.120;8.660;2023-11-21T12:09:02;19.70;50.30
13115;DHT22;6623;52.120;8.660;2023-11-21T12:11:31;19.70;50.30
13115;DHT22;6623;52.120;8.660;2023-11-21T12:13:58;19.70;50.40
13115;DHT22;6623;52.120;8.660;2023-11-21T12:16:25;19.70;50.40
13115;DHT22;6623;52.120;8.660;2023-11-21T12:18:53;19.70;50.40
13115;DHT22;6623;52.120;8.660;2023-11-21T12:21:20;19.70;50.30
13115;DHT22;6623;52.120;8.660;2023-11-21T12:23:46;19.70;50.30
13115;DHT22;6623;52.120;8.660;2023-11-21T12:26:13;19.70;50.30
13115;DHT22;6623;52.120;8.660;2023-11-21T12:28:39;19.70;50.30
13115;DHT22;6623;52.120;8.660;2023-11-21T12:31:05;19.70;50.30
13115;DHT22;6623;52.120;8.660;2023-11-21T12:33:32;19.70;50.30
13115;DHT22;6623;52.120;8.660;2023-11-21T12:35:58;19.70;50.30
13115;DHT22;6623;52.120;8.660;2023-11-21T12:38:24;19.70;50.30
13115;DHT22;6623;52.120;8.660;2023-11-21T12:40:50;19.70;50.30
13115;DHT22;6623;52.120;8.660;2023-11-21T12:43:17;19.70;50.30
13115;DHT22;6623;52.120;8.660;2023-11-21T12:45:43;19.70;50.30
13115;DHT22;6623;52.120;8.660;2023-11-21T12:48:09;19.70;50.30
13115;DHT22;6623;52.120;8.660;2023-11-21T12:50:37;19.70;50.30
13115;DHT22;6623;52.120;8.660;2023-11-21T12:53:05;19.70;50.30
13115;DHT22;6623;52.120;8.660;2023-11-21T12:55:32;19.70;50.30
13115;DHT22;6623;52.120;8.660;2023-11-21T12:58:01;19.70;50.30
13115;DHT22;6623;52.120;8.660;2023-11-21T13:00:36;19.70;50.30
13115;DHT22;6623;52.120;8.660;2023-11-21T13:03:06;19.70;50.30
13115;DHT22;6623;52.120;8.660;2023-11-21T13:05:37;19.70;50.30
13115;DHT22;6623;52.120;8.660;2023-11-21T13:08:08;19.70;50.30
13115;DHT22;6623;52.120;8.660;2023-11-21T13:10:35;19.70;50.30
13115;DHT22;6623;52.120;8.660;2023-11-21T13:13:09;19.70;50.30
13115;DHT22;6623;52.120;8.660;2023-11-21T13:15:39;19.70;50.30
13115;DHT22;6623;52.120;8.660;2023-11-21T13:18:06;19.70;50.30
13115;DHT22;6623;52.120;8.660;2023-11-21T13:20:32;19.70;50.30
13115;DHT22;6623;52.120;8.660;2023-11-21T13:22:58;19.70;50.30
13115;DHT22;6623;52.120;8.660;2023-11-21T13:25:27;19.70;50.40
13115;DHT22;6623;52.120;8.660;2023-11-21T13:27:56;19.70;50.40
13115;DHT22;6623;52.120;8.660;2023-11-21T13:30:22;19.70;50.40
13115;DHT22;6623;52.120;8.660;2023-11-21T13:32:59;19.70;50.40
13115;DHT22;6623;52.120;8.660;2023-11-21T13:35:30;19.70;50.40
13115;DHT22;6623;52.120;8.660;2023-11-21T13:38:04;19.70;50.40
13115;DHT22;6623;52.120;8.660;2023-11-21T13:40:31;19.70;50.40
13115;DHT22;6623;52.120;8.660;2023-11-21T13:42:56;19.70;50.40
13115;DHT22;6623;52.120;8.660;2023-11-21T13:45:25;19.70;50.50
13115;DHT22;6623;52.120;8.660;2023-11-21T13:47:54;19.70;50.50
13115;DHT22;6623;52.120;8.660;2023-11-21T13:50:26;19.70;50.50
13115;DHT22;6623;52.120;8.660;2023-11-21T13:52:59;19.70;50.50
13115;DHT22;6623;52.120;8.660;2023-11-21T13:55:29;19.70;50.50
13115;DHT22;6623;52.120;8.660;2023-11-21T13:57:55;19.70;50.60
13115;DHT22;6623;52.120;8.660;2023-11-21T14:00:20;19.70;50.60
13115;DHT22;6623;52.120;8.660;2023-11-21T14:03:13;19.70;50.60
13115;DHT22;6623;52.120;8.660;2023-11-21T14:05:45;19.70;50.60
13115;DHT22;6623;52.120;8.660;2023-11-21T14:08:13;19.70;50.60
13115;DHT22;6623;52.120;8.660;2023-11-21T14:10:42;19.70;50.60
13115;DHT22;6623;52.120;8.660;2023-11-21T14:13:12;19.70;50.70
13115;DHT22;6623;52.120;8.660;2023-11-21T14:15:39;19.70;50.70
13115;DHT22;6623;52.120;8.660;2023-11-21T14:18:07;19.70;50.70
13115;DHT22;6623;52.120;8.660;2023-11-21T14:20:38;19.60;50.70
13115;DHT22;6623;52.120;8.660;2023-11-21T14:23:04;19.70;50.70
13115;DHT22;6623;52.120;8.660;2023-11-21T14:25:35;19.70;50.70
13115;DHT22;6623;52.120;8.660;2023-11-21T14:28:02;19.70;50.70
13115;DHT22;6623;52.120;8.660;2023-11-21T14:30:29;19.70;50.70
13115;DHT22;6623;52.120;8.660;2023-11-21T14:32:57;19.70;50.70
13115;DHT22;6623;52.120;8.660;2023-11-21T14:35:23;19.70;50.70
13115;DHT22;6623;52.120;8.660;2023-11-21T14:37:49;19.70;50.70
13115;DHT22;6623;52.120;8.660;2023-11-21T14:40:14;19.70;50.70
13115;DHT22;6623;52.120;8.660;2023-11-21T14:42:42;19.70;50.70
13115;DHT22;6623;52.120;8.660;2023-11-21T14:45:08;19.70;50.70
13115;DHT22;6623;52.120;8.660;2023-11-21T14:47:37;19.70;50.70
13115;DHT22;6623;52.120;8.660;2023-11-21T14:50:09;19.70;50.70
13115;DHT22;6623;52.120;8.660;2023-11-21T14:52:57;19.70;50.70
13115;DHT22;6623;52.120;8.660;2023-11-21T14:55:25;19.70;50.70
13115;DHT22;6623;52.120;8.660;2023-11-21T14:58:09;19.70;50.70
13115;DHT22;6623;52.120;8.660;2023-11-21T15:00:38;19.70;50.70
13115;DHT22;6623;52.120;8.660;2023-11-21T15:03:10;19.70;50.70
13115;DHT22;6623;52.120;8.660;2023-11-21T15:05:43;19.70;50.70
13115;DHT22;6623;52.120;8.660;2023-11-21T15:08:09;19.70;50.70
13115;DHT22;6623;52.120;8.660;2023-11-21T15:10:51;19.70;50.80
13115;DHT22;6623;52.120;8.660;2023-11-21T15:13:20;19.70;50.70
13115;DHT22;6623;52.120;8.660;2023-11-21T15:15:48;19.70;50.70
13115;DHT22;6623;52.120;8.660;2023-11-21T15:18:14;19.60;50.70
13115;DHT22;6623;52.120;8.660;2023-11-21T15:20:40;19.60;50.70
13115;DHT22;6623;52.120;8.660;2023-11-21T15:23:06;19.60;50.70
13115;DHT22;6623;52.120;8.660;2023-11-21T15:25:32;19.70;50.70
13115;DHT22;6623;52.120;8.660;2023-11-21T15:27:59;19.70;50.80
13115;DHT22;6623;52.120;8.660;2023-11-21T15:30:25;19.70;50.80
13115;DHT22;6623;52.120;8.660;2023-11-21T15:32:53;19.70;50.80
13115;DHT22;6623;52.120;8.660;2023-11-21T15:35:20;19.70;50.70
13115;DHT22;6623;52.120;8.660;2023-11-21T15:37:46;19.60;50.70
13115;DHT22;6623;52.120;8.660;2023-11-21T15:40:12;19.70;50.70
13115;DHT22;6623;52.120;8.660;2023-11-21T15:42:40;19.70;50.80
13115;DHT22;6623;52.120;8.660;2023-11-21T15:45:06;19.70;50.70
13115;DHT22;6623;52.120;8.660;2023-11-21T15:47:33;19.70;50.80
13115;DHT22;6623;52.120;8.660;2023-11-21T15:49:59;19.70;50.70
13115;DHT22;6623;52.120;8.660;2023-11-21T15:52:25;19.70;50.70
13115;DHT22;6623;52.120;8.660;2023-11-21T15:54:50;19.70;50.70
13115;DHT22;6623;52.120;8.660;2023-11-21T15:57:16;19.70;50.80
13115;DHT22;6623;52.120;8.660;2023-11-21T15:59:43;19.70;50.80